sensor_id;sensor_type;location;lat;lon;timestamp;pressure;altitude;pressure_sealevel;temperature;humidity
29467;BME280;60968;37.490;-122.288;2023-05-24T00:01:46;98259.03;;;17.37;64.89
29467;BME280;60968;37.490;-122.288;2023-05-24T00:04:47;98256.56;;;17.34;64.25
29467;BME280;60968;37.490;-122.288;2023-05-24T00:07:48;98264.47;;;17.00;64.65
29467;BME280;60968;37.490;-122.288;2023-05-24T00:10:49;98264.53;;;16.98;65.74
29467;BME280;60968;37.490;-122.288;2023-05-24T00:13:50;98269.16;;;17.11;65.39
29467;BME280;60968;37.490;-122.288;2023-05-24T00:16:51;98268.34;;;17.26;66.00
29467;BME280;60968;37.490;-122.288;2023-05-24T00:19:52;98269.78;;;17.16;65.33
29467;BME280;60968;37.490;-122.288;2023-05-24T00:22:52;98269.97;;;17.13;65.94
29467;BME280;60968;37.490;-122.288;2023-05-24T00:25:53;98269.34;;;17.08;65.58
29467;BME280;60968;37.490;-122.288;2023-05-24T00:28:54;98264.06;;;17.08;65.59
29467;BME280;60968;37.490;-122.288;2023-05-24T00:31:55;98263.38;;;16.87;66.16
29467;BME280;60968;37.490;-122.288;2023-05-24T00:34:56;98253.44;;;16.93;67.12
29467;BME280;60968;37.490;-122.288;2023-05-24T00:37:56;98257.44;;;17.01;66.86
29467;BME280;60968;37.490;-122.288;2023-05-24T00:40:57;98248.44;;;17.05;67.53
29467;BME280;60968;37.490;-122.288;2023-05-24T00:43:58;98246.81;;;17.02;67.21
29467;BME280;60968;37.490;-122.288;2023-05-24T00:46:59;98246.22;;;16.79;67.71
29467;BME280;60968;37.490;-122.288;2023-05-24T00:50:01;98254.81;;;16.48;69.40
29467;BME280;60968;37.490;-122.288;2023-05-24T00:53:02;98256.44;;;16.33;70.12
29467;BME280;60968;37.490;-122.288;2023-05-24T00:56:03;98257.00;;;16.40;70.71
29467;BME280;60968;37.490;-122.288;2023-05-24T00:59:07;98256.03;;;16.41;70.67
29467;BME280;60968;37.490;-122.288;2023-05-24T01:02:08;98259.66;;;16.21;71.49
29467;BME280;60968;37.490;-122.288;2023-05-24T01:05:09;98262.72;;;16.11;71.99
29467;BME280;60968;37.490;-122.288;2023-05-24T01:18:23;98258.91;;;15.82;73.78
29467;BME280;60968;37.490;-122.288;2023-05-24T01:21:42;98256.41;;;15.60;74.91
29467;BME280;60968;37.490;-122.288;2023-05-24T01:28:16;98264.97;;;15.25;77.66
29467;BME280;60968;37.490;-122.288;2023-05-24T01:31:18;98263.94;;;15.09;78.39
29467;BME280;60968;37.490;-122.288;2023-05-24T01:34:19;98260.63;;;15.05;79.01
29467;BME280;60968;37.490;-122.288;2023-05-24T01:37:20;98253.22;;;14.95;79.97
29467;BME280;60968;37.490;-122.288;2023-05-24T01:40:21;98253.56;;;14.87;80.52
29467;BME280;60968;37.490;-122.288;2023-05-24T01:43:27;98262.88;;;14.94;80.70
29467;BME280;60968;37.490;-122.288;2023-05-24T01:46:36;98256.25;;;14.85;80.92
29467;BME280;60968;37.490;-122.288;2023-05-24T01:49:45;98260.63;;;14.85;81.53
29467;BME280;60968;37.490;-122.288;2023-05-24T01:52:51;98257.03;;;14.67;83.03
29467;BME280;60968;37.490;-122.288;2023-05-24T01:55:55;98265.34;;;14.56;82.96
29467;BME280;60968;37.490;-122.288;2023-05-24T01:58:58;98254.75;;;14.37;85.08
29467;BME280;60968;37.490;-122.288;2023-05-24T02:01:59;98254.69;;;14.18;86.76
29467;BME280;60968;37.490;-122.288;2023-05-24T02:05:00;98259.59;;;14.03;88.49
29467;BME280;60968;37.490;-122.288;2023-05-24T02:08:01;98262.00;;;13.87;90.95
29467;BME280;60968;37.490;-122.288;2023-05-24T02:11:02;98266.56;;;13.82;91.72
29467;BME280;60968;37.490;-122.288;2023-05-24T02:14:03;98262.34;;;13.78;92.01
29467;BME280;60968;37.490;-122.288;2023-05-24T02:17:04;98262.72;;;13.69;91.81
29467;BME280;60968;37.490;-122.288;2023-05-24T02:20:05;98262.47;;;13.53;93.80
29467;BME280;60968;37.490;-122.288;2023-05-24T02:23:06;98265.09;;;13.53;93.39
29467;BME280;60968;37.490;-122.288;2023-05-24T02:26:07;98270.59;;;13.45;93.91
29467;BME280;60968;37.490;-122.288;2023-05-24T02:29:08;98265.31;;;13.21;96.09
29467;BME280;60968;37.490;-122.288;2023-05-24T02:32:09;98265.13;;;13.28;95.84
29467;BME280;60968;37.490;-122.288;2023-05-24T02:35:10;98259.91;;;13.26;95.77
29467;BME280;60968;37.490;-122.288;2023-05-24T02:38:11;98257.59;;;13.18;96.11
29467;BME280;60968;37.490;-122.288;2023-05-24T02:41:11;98263.69;;;12.95;97.42
29467;BME280;60968;37.490;-122.288;2023-05-24T02:44:12;98263.50;;;12.75;99.44
29467;BME280;60968;37.490;-122.288;2023-05-24T02:47:14;98272.91;;;12.80;99.07
29467;BME280;60968;37.490;-122.288;2023-05-24T02:50:15;98264.59;;;12.69;99.95
29467;BME280;60968;37.490;-122.288;2023-05-24T02:53:15;98283.19;;;12.60;100.00
29467;BME280;60968;37.490;-122.288;2023-05-24T02:56:16;98289.69;;;12.48;100.00
29467;BME280;60968;37.490;-122.288;2023-05-24T02:59:17;98290.47;;;12.50;100.00
29467;BME280;60968;37.490;-122.288;2023-05-24T03:02:18;98291.91;;;12.33;100.00
29467;BME280;60968;37.490;-122.288;2023-05-24T03:05:19;98297.16;;;12.32;100.00
29467;BME280;60968;37.490;-122.288;2023-05-24T03:08:20;98298.41;;;12.20;100.00
29467;BME280;60968;37.490;-122.288;2023-05-24T03:11:21;98299.00;;;12.01;100.00
29467;BME280;60968;37.490;-122.288;2023-05-24T03:14:21;98306.78;;;12.03;100.00
29467;BME280;60968;37.490;-122.288;2023-05-24T03:17:22;98299.97;;;11.99;100.00
29467;BME280;60968;37.490;-122.288;2023-05-24T03:20:23;98301.56;;;12.03;100.00
29467;BME280;60968;37.490;-122.288;2023-05-24T03:23:24;98300.78;;;12.01;100.00
29467;BME280;60968;37.490;-122.288;2023-05-24T03:26:25;98302.63;;;11.97;100.00
29467;BME280;60968;37.490;-122.288;2023-05-24T03:29:26;98312.13;;;12.00;100.00
29467;BME280;60968;37.490;-122.288;2023-05-24T03:32:27;98304.97;;;12.05;100.00
29467;BME280;60968;37.490;-122.288;2023-05-24T03:35:27;98317.44;;;11.97;100.00
29467;BME280;60968;37.490;-122.288;2023-05-24T03:38:28;98312.31;;;11.92;100.00
29467;BME280;60968;37.490;-122.288;2023-05-24T03:41:29;98321.84;;;11.95;100.00
29467;BME280;60968;37.490;-122.288;2023-05-24T03:44:30;98325.66;;;11.83;100.00
29467;BME280;60968;37.490;-122.288;2023-05-24T03:47:31;98328.81;;;11.64;100.00
29467;BME280;60968;37.490;-122.288;2023-05-24T03:50:32;98332.53;;;11.56;100.00
29467;BME280;60968;37.490;-122.288;2023-05-24T03:53:33;98334.34;;;11.54;100.00
29467;BME280;60968;37.490;-122.288;2023-05-24T03:56:34;98334.06;;;11.63;100.00
29467;BME280;60968;37.490;-122.288;2023-05-24T03:59:34;98333.25;;;11.61;100.00
29467;BME280;60968;37.490;-122.288;2023-05-24T04:02:35;98336.13;;;11.52;100.00
29467;BME280;60968;37.490;-122.288;2023-05-24T04:05:36;98341.81;;;11.35;100.00
29467;BME280;60968;37.490;-122.288;2023-05-24T04:08:37;98346.25;;;11.32;100.00
29467;BME280;60968;37.490;-122.288;2023-05-24T04:11:38;98348.91;;;11.31;100.00
29467;BME280;60968;37.490;-122.288;2023-05-24T04:14:39;98347.13;;;11.31;100.00
29467;BME280;60968;37.490;-122.288;2023-05-24T04:17:44;98343.63;;;11.32;100.00
29467;BME280;60968;37.490;-122.288;2023-05-24T04:20:44;98342.69;;;11.35;100.00
29467;BME280;60968;37.490;-122.288;2023-05-24T04:23:45;98345.22;;;11.38;100.00
29467;BME280;60968;37.490;-122.288;2023-05-24T04:26:46;98345.63;;;11.23;100.00
29467;BME280;60968;37.490;-122.288;2023-05-24T04:29:47;98349.09;;;11.23;100.00
29467;BME280;60968;37.490;-122.288;2023-05-24T04:32:48;98356.06;;;11.23;100.00
29467;BME280;60968;37.490;-122.288;2023-05-24T04:35:49;98349.13;;;11.22;100.00
29467;BME280;60968;37.490;-122.288;2023-05-24T04:38:50;98357.13;;;11.15;100.00
29467;BME280;60968;37.490;-122.288;2023-05-24T04:41:51;98359.75;;;11.15;100.00
29467;BME280;60968;37.490;-122.288;2023-05-24T04:44:51;98363.50;;;11.04;100.00
29467;BME280;60968;37.490;-122.288;2023-05-24T04:47:52;98374.69;;;10.76;100.00
29467;BME280;60968;37.490;-122.288;2023-05-24T04:50:54;98376.41;;;10.75;100.00
29467;BME280;60968;37.490;-122.288;2023-05-24T04:53:56;98386.94;;;10.71;100.00
29467;BME280;60968;37.490;-122.288;2023-05-24T04:56:56;98384.47;;;10.66;100.00
29467;BME280;60968;37.490;-122.288;2023-05-24T04:59:57;98387.00;;;10.69;100.00
29467;BME280;60968;37.490;-122.288;2023-05-24T05:02:58;98388.59;;;10.75;100.00
29467;BME280;60968;37.490;-122.288;2023-05-24T05:05:59;98387.28;;;10.57;100.00
29467;BME280;60968;37.490;-122.288;2023-05-24T05:09:00;98391.78;;;10.50;100.00
29467;BME280;60968;37.490;-122.288;2023-05-24T05:12:01;98389.16;;;10.50;100.00
29467;BME280;60968;37.490;-122.288;2023-05-24T05:15:02;98391.53;;;10.61;100.00
29467;BME280;60968;37.490;-122.288;2023-05-24T05:18:02;98396.69;;;10.62;100.00
29467;BME280;60968;37.490;-122.288;2023-05-24T05:21:04;98400.91;;;10.68;100.00
29467;BME280;60968;37.490;-122.288;2023-05-24T05:24:04;98400.81;;;10.71;100.00
29467;BME280;60968;37.490;-122.288;2023-05-24T05:27:05;98398.50;;;10.59;100.00
29467;BME280;60968;37.490;-122.288;2023-05-24T05:30:07;98398.50;;;10.60;100.00
29467;BME280;60968;37.490;-122.288;2023-05-24T05:33:08;98398.34;;;10.67;100.00
29467;BME280;60968;37.490;-122.288;2023-05-24T05:36:08;98400.06;;;10.68;100.00
29467;BME280;60968;37.490;-122.288;2023-05-24T05:39:09;98394.09;;;10.62;100.00
29467;BME280;60968;37.490;-122.288;2023-05-24T05:42:10;98387.50;;;10.47;100.00
29467;BME280;60968;37.490;-122.288;2023-05-24T05:45:12;98393.63;;;10.46;100.00
29467;BME280;60968;37.490;-122.288;2023-05-24T05:48:13;98394.56;;;10.42;100.00
29467;BME280;60968;37.490;-122.288;2023-05-24T05:51:14;98398.06;;;10.41;100.00
29467;BME280;60968;37.490;-122.288;2023-05-24T05:54:15;98388.59;;;10.37;100.00
29467;BME280;60968;37.490;-122.288;2023-05-24T05:57:16;98391.81;;;10.49;100.00
29467;BME280;60968;37.490;-122.288;2023-05-24T06:00:17;98403.06;;;10.51;100.00
29467;BME280;60968;37.490;-122.288;2023-05-24T06:03:18;98405.81;;;10.44;100.00
29467;BME280;60968;37.490;-122.288;2023-05-24T06:06:19;98406.91;;;10.34;100.00
29467;BME280;60968;37.490;-122.288;2023-05-24T06:09:20;98403.94;;;10.10;100.00
29467;BME280;60968;37.490;-122.288;2023-05-24T06:12:20;98409.97;;;10.11;100.00
29467;BME280;60968;37.490;-122.288;2023-05-24T06:15:21;98410.63;;;10.21;100.00
29467;BME280;60968;37.490;-122.288;2023-05-24T06:18:22;98411.56;;;10.18;100.00
29467;BME280;60968;37.490;-122.288;2023-05-24T06:21:23;98408.00;;;10.24;100.00
29467;BME280;60968;37.490;-122.288;2023-05-24T06:24:24;98415.81;;;10.24;100.00
29467;BME280;60968;37.490;-122.288;2023-05-24T06:27:25;98412.34;;;10.22;100.00
29467;BME280;60968;37.490;-122.288;2023-05-24T06:30:25;98410.72;;;10.18;100.00
29467;BME280;60968;37.490;-122.288;2023-05-24T06:33:26;98416.25;;;10.02;100.00
29467;BME280;60968;37.490;-122.288;2023-05-24T06:36:27;98411.94;;;10.01;100.00
29467;BME280;60968;37.490;-122.288;2023-05-24T06:39:28;98411.38;;;9.87;100.00
29467;BME280;60968;37.490;-122.288;2023-05-24T06:42:29;98402.72;;;9.86;100.00
29467;BME280;60968;37.490;-122.288;2023-05-24T06:45:30;98394.03;;;9.86;100.00
29467;BME280;60968;37.490;-122.288;2023-05-24T06:48:30;98395.84;;;9.84;100.00
29467;BME280;60968;37.490;-122.288;2023-05-24T06:51:31;98399.31;;;9.83;100.00
29467;BME280;60968;37.490;-122.288;2023-05-24T06:54:32;98395.75;;;9.87;100.00
29467;BME280;60968;37.490;-122.288;2023-05-24T06:57:33;98401.78;;;9.90;100.00
29467;BME280;60968;37.490;-122.288;2023-05-24T07:00:34;98398.13;;;9.98;100.00
29467;BME280;60968;37.490;-122.288;2023-05-24T07:03:35;98391.94;;;10.03;100.00
29467;BME280;60968;37.490;-122.288;2023-05-24T07:06:35;98396.13;;;10.10;100.00
29467;BME280;60968;37.490;-122.288;2023-05-24T07:09:36;98409.09;;;10.12;100.00
29467;BME280;60968;37.490;-122.288;2023-05-24T07:12:38;98404.06;;;10.04;100.00
29467;BME280;60968;37.490;-122.288;2023-05-24T07:15:42;98403.09;;;10.10;100.00
29467;BME280;60968;37.490;-122.288;2023-05-24T07:18:43;98406.44;;;10.15;100.00
29467;BME280;60968;37.490;-122.288;2023-05-24T07:21:44;98404.69;;;10.16;100.00
29467;BME280;60968;37.490;-122.288;2023-05-24T07:24:44;98406.47;;;10.13;100.00
29467;BME280;60968;37.490;-122.288;2023-05-24T07:27:45;98423.94;;;10.07;100.00
29467;BME280;60968;37.490;-122.288;2023-05-24T07:30:46;98412.84;;;10.00;100.00
29467;BME280;60968;37.490;-122.288;2023-05-24T07:33:47;98407.09;;;9.84;100.00
29467;BME280;60968;37.490;-122.288;2023-05-24T07:36:48;98404.78;;;9.69;100.00
29467;BME280;60968;37.490;-122.288;2023-05-24T07:39:49;98405.13;;;9.52;100.00
29467;BME280;60968;37.490;-122.288;2023-05-24T07:42:52;98389.53;;;9.52;100.00
29467;BME280;60968;37.490;-122.288;2023-05-24T07:45:52;98394.03;;;9.43;100.00
29467;BME280;60968;37.490;-122.288;2023-05-24T07:48:53;98401.84;;;9.42;100.00
29467;BME280;60968;37.490;-122.288;2023-05-24T07:51:54;98406.16;;;9.44;100.00
29467;BME280;60968;37.490;-122.288;2023-05-24T07:54:55;98412.19;;;9.47;100.00
29467;BME280;60968;37.490;-122.288;2023-05-24T07:57:56;98407.94;;;9.42;100.00
29467;BME280;60968;37.490;-122.288;2023-05-24T08:00:56;98416.50;;;9.46;100.00
29467;BME280;60968;37.490;-122.288;2023-05-24T08:03:57;98417.31;;;9.50;100.00
29467;BME280;60968;37.490;-122.288;2023-05-24T08:06:58;98418.00;;;9.59;100.00
29467;BME280;60968;37.490;-122.288;2023-05-24T08:09:59;98421.59;;;9.54;100.00
29467;BME280;60968;37.490;-122.288;2023-05-24T08:13:00;98420.84;;;9.47;100.00
29467;BME280;60968;37.490;-122.288;2023-05-24T08:16:01;98423.50;;;9.44;100.00
29467;BME280;60968;37.490;-122.288;2023-05-24T08:19:02;98430.38;;;9.45;100.00
29467;BME280;60968;37.490;-122.288;2023-05-24T08:22:03;98431.38;;;9.39;100.00
29467;BME280;60968;37.490;-122.288;2023-05-24T08:25:04;98433.34;;;9.26;100.00
29467;BME280;60968;37.490;-122.288;2023-05-24T08:28:05;98422.16;;;9.23;100.00
29467;BME280;60968;37.490;-122.288;2023-05-24T08:31:06;98413.47;;;9.22;100.00
29467;BME280;60968;37.490;-122.288;2023-05-24T08:34:07;98424.66;;;9.27;100.00
29467;BME280;60968;37.490;-122.288;2023-05-24T08:37:07;98426.56;;;9.18;100.00
29467;BME280;60968;37.490;-122.288;2023-05-24T08:40:08;98433.44;;;9.22;100.00
29467;BME280;60968;37.490;-122.288;2023-05-24T08:43:09;98429.03;;;9.25;100.00
29467;BME280;60968;37.490;-122.288;2023-05-24T08:46:11;98432.56;;;9.23;100.00
29467;BME280;60968;37.490;-122.288;2023-05-24T08:49:14;98439.50;;;9.21;100.00
29467;BME280;60968;37.490;-122.288;2023-05-24T08:52:16;98436.97;;;9.18;100.00
29467;BME280;60968;37.490;-122.288;2023-05-24T08:55:17;98440.28;;;9.26;100.00
29467;BME280;60968;37.490;-122.288;2023-05-24T08:58:19;98447.16;;;9.30;100.00
29467;BME280;60968;37.490;-122.288;2023-05-24T09:01:20;98443.81;;;9.22;100.00
29467;BME280;60968;37.490;-122.288;2023-05-24T09:04:23;98438.75;;;9.16;100.00
29467;BME280;60968;37.490;-122.288;2023-05-24T09:07:26;98443.09;;;9.14;100.00
29467;BME280;60968;37.490;-122.288;2023-05-24T09:10:28;98443.97;;;9.14;100.00
29467;BME280;60968;37.490;-122.288;2023-05-24T09:13:32;98438.84;;;9.09;100.00
29467;BME280;60968;37.490;-122.288;2023-05-24T09:16:33;98435.31;;;9.14;100.00
29467;BME280;60968;37.490;-122.288;2023-05-24T09:19:35;98425.03;;;9.07;100.00
29467;BME280;60968;37.490;-122.288;2023-05-24T09:22:36;98429.31;;;9.08;100.00
29467;BME280;60968;37.490;-122.288;2023-05-24T09:25:42;98426.03;;;9.00;100.00
29467;BME280;60968;37.490;-122.288;2023-05-24T09:28:46;98425.94;;;9.05;100.00
29467;BME280;60968;37.490;-122.288;2023-05-24T09:31:47;98424.16;;;9.07;100.00
29467;BME280;60968;37.490;-122.288;2023-05-24T09:34:49;98429.31;;;9.08;100.00
29467;BME280;60968;37.490;-122.288;2023-05-24T09:37:53;98427.75;;;9.00;100.00
29467;BME280;60968;37.490;-122.288;2023-05-24T09:41:07;98433.06;;;8.93;100.00
29467;BME280;60968;37.490;-122.288;2023-05-24T09:44:12;98439.09;;;8.94;100.00
29467;BME280;60968;37.490;-122.288;2023-05-24T09:47:14;98443.31;;;9.01;100.00
29467;BME280;60968;37.490;-122.288;2023-05-24T09:50:16;98440.56;;;9.10;100.00
29467;BME280;60968;37.490;-122.288;2023-05-24T09:53:17;98449.16;;;9.13;100.00
29467;BME280;60968;37.490;-122.288;2023-05-24T09:56:18;98452.53;;;9.19;100.00
29467;BME280;60968;37.490;-122.288;2023-05-24T09:59:18;98450.91;;;9.14;100.00
29467;BME280;60968;37.490;-122.288;2023-05-24T10:02:20;98455.22;;;9.15;100.00
29467;BME280;60968;37.490;-122.288;2023-05-24T10:05:21;98463.06;;;9.12;100.00
29467;BME280;60968;37.490;-122.288;2023-05-24T10:08:23;98461.34;;;9.10;100.00
29467;BME280;60968;37.490;-122.288;2023-05-24T10:11:25;98452.75;;;9.05;100.00
29467;BME280;60968;37.490;-122.288;2023-05-24T10:14:28;98448.47;;;9.03;100.00
29467;BME280;60968;37.490;-122.288;2023-05-24T10:17:29;98453.56;;;9.10;100.00
29467;BME280;60968;37.490;-122.288;2023-05-24T10:20:30;98453.34;;;9.23;100.00
29467;BME280;60968;37.490;-122.288;2023-05-24T10:23:31;98458.38;;;9.32;100.00
29467;BME280;60968;37.490;-122.288;2023-05-24T10:26:33;98453.91;;;9.39;100.00
29467;BME280;60968;37.490;-122.288;2023-05-24T10:32:46;98439.94;;;9.44;100.00
29467;BME280;60968;37.490;-122.288;2023-05-24T10:35:48;98442.50;;;9.46;100.00
29467;BME280;60968;37.490;-122.288;2023-05-24T10:38:49;98436.47;;;9.46;100.00
29467;BME280;60968;37.490;-122.288;2023-05-24T10:41:50;98445.06;;;9.51;100.00
29467;BME280;60968;37.490;-122.288;2023-05-24T10:44:52;98458.72;;;9.60;100.00
29467;BME280;60968;37.490;-122.288;2023-05-24T10:47:55;98447.28;;;9.69;100.00
29467;BME280;60968;37.490;-122.288;2023-05-24T10:51:00;98454.81;;;9.82;100.00
29467;BME280;60968;37.490;-122.288;2023-05-24T10:54:18;98459.78;;;9.94;100.00
29467;BME280;60968;37.490;-122.288;2023-05-24T10:57:22;98458.03;;;9.96;100.00
29467;BME280;60968;37.490;-122.288;2023-05-24T11:03:23;98450.41;;;9.87;100.00
29467;BME280;60968;37.490;-122.288;2023-05-24T11:06:46;98440.19;;;9.77;100.00
29467;BME280;60968;37.490;-122.288;2023-05-24T11:09:48;98442.69;;;9.82;100.00
29467;BME280;60968;37.490;-122.288;2023-05-24T11:12:56;98447.06;;;9.80;100.00
29467;BME280;60968;37.490;-122.288;2023-05-24T11:15:59;98452.94;;;9.90;100.00
29467;BME280;60968;37.490;-122.288;2023-05-24T11:22:17;98444.16;;;9.95;100.00
29467;BME280;60968;37.490;-122.288;2023-05-24T11:25:19;98447.69;;;9.93;100.00
29467;BME280;60968;37.490;-122.288;2023-05-24T11:28:20;98441.78;;;9.85;100.00
29467;BME280;60968;37.490;-122.288;2023-05-24T11:31:28;98448.50;;;9.95;100.00
29467;BME280;60968;37.490;-122.288;2023-05-24T11:34:30;98451.00;;;10.00;100.00
29467;BME280;60968;37.490;-122.288;2023-05-24T11:37:31;98456.25;;;9.98;100.00
29467;BME280;60968;37.490;-122.288;2023-05-24T11:40:33;98458.09;;;9.91;100.00
29467;BME280;60968;37.490;-122.288;2023-05-24T11:43:34;98456.47;;;9.86;100.00
29467;BME280;60968;37.490;-122.288;2023-05-24T11:46:35;98459.22;;;9.79;100.00
29467;BME280;60968;37.490;-122.288;2023-05-24T11:49:36;98462.72;;;9.77;100.00
29467;BME280;60968;37.490;-122.288;2023-05-24T11:52:40;98470.72;;;9.69;100.00
29467;BME280;60968;37.490;-122.288;2023-05-24T11:55:41;98463.84;;;9.65;100.00
29467;BME280;60968;37.490;-122.288;2023-05-24T11:58:48;98463.91;;;9.62;100.00
29467;BME280;60968;37.490;-122.288;2023-05-24T12:01:55;98461.00;;;9.76;100.00
29467;BME280;60968;37.490;-122.288;2023-05-24T12:05:07;98448.88;;;9.76;100.00
29467;BME280;60968;37.490;-122.288;2023-05-24T12:08:10;98444.69;;;9.69;100.00
29467;BME280;60968;37.490;-122.288;2023-05-24T12:11:11;98455.94;;;9.70;100.00
29467;BME280;60968;37.490;-122.288;2023-05-24T12:14:26;98450.78;;;9.68;100.00
29467;BME280;60968;37.490;-122.288;2023-05-24T12:17:27;98441.31;;;9.64;100.00
29467;BME280;60968;37.490;-122.288;2023-05-24T12:20:37;98446.50;;;9.64;100.00
29467;BME280;60968;37.490;-122.288;2023-05-24T12:23:38;98443.91;;;9.64;100.00
29467;BME280;60968;37.490;-122.288;2023-05-24T12:26:43;98439.59;;;9.63;100.00
29467;BME280;60968;37.490;-122.288;2023-05-24T12:29:44;98449.28;;;9.56;100.00
29467;BME280;60968;37.490;-122.288;2023-05-24T12:32:46;98455.19;;;9.63;100.00
29467;BME280;60968;37.490;-122.288;2023-05-24T12:35:47;98454.97;;;9.75;100.00
29467;BME280;60968;37.490;-122.288;2023-05-24T12:38:48;98444.41;;;9.82;100.00
29467;BME280;60968;37.490;-122.288;2023-05-24T12:41:54;98461.50;;;9.95;100.00
29467;BME280;60968;37.490;-122.288;2023-05-24T12:44:55;98467.69;;;9.89;100.00
29467;BME280;60968;37.490;-122.288;2023-05-24T12:47:57;98457.56;;;9.75;100.00
29467;BME280;60968;37.490;-122.288;2023-05-24T12:50:58;98467.91;;;9.78;100.00
29467;BME280;60968;37.490;-122.288;2023-05-24T12:53:59;98459.28;;;9.76;100.00
29467;BME280;60968;37.490;-122.288;2023-05-24T12:57:00;98469.59;;;9.81;100.00
29467;BME280;60968;37.490;-122.288;2023-05-24T13:00:01;98471.56;;;9.70;100.00
29467;BME280;60968;37.490;-122.288;2023-05-24T13:03:02;98466.47;;;9.64;100.00
29467;BME280;60968;37.490;-122.288;2023-05-24T13:06:02;98462.91;;;9.69;100.00
29467;BME280;60968;37.490;-122.288;2023-05-24T13:09:04;98471.50;;;9.73;100.00
29467;BME280;60968;37.490;-122.288;2023-05-24T13:12:05;98471.25;;;9.85;100.00
29467;BME280;60968;37.490;-122.288;2023-05-24T13:15:06;98471.09;;;9.94;100.00
29467;BME280;60968;37.490;-122.288;2023-05-24T13:18:07;98477.13;;;9.95;100.00
29467;BME280;60968;37.490;-122.288;2023-05-24T13:21:08;98475.22;;;10.03;100.00
29467;BME280;60968;37.490;-122.288;2023-05-24T13:24:12;98478.31;;;10.21;100.00
29467;BME280;60968;37.490;-122.288;2023-05-24T13:27:13;98486.88;;;10.27;100.00
29467;BME280;60968;37.490;-122.288;2023-05-24T13:30:14;98491.97;;;10.32;100.00
29467;BME280;60968;37.490;-122.288;2023-05-24T13:33:15;98502.25;;;10.41;100.00
29467;BME280;60968;37.490;-122.288;2023-05-24T13:36:16;98496.13;;;10.44;100.00
29467;BME280;60968;37.490;-122.288;2023-05-24T13:39:17;98509.97;;;10.44;100.00
29467;BME280;60968;37.490;-122.288;2023-05-24T13:42:18;98509.81;;;10.52;100.00
29467;BME280;60968;37.490;-122.288;2023-05-24T13:45:19;98511.59;;;10.50;100.00
29467;BME280;60968;37.490;-122.288;2023-05-24T13:48:20;98512.34;;;10.55;100.00
29467;BME280;60968;37.490;-122.288;2023-05-24T13:51:22;98515.63;;;10.65;100.00
29467;BME280;60968;37.490;-122.288;2023-05-24T13:54:23;98508.75;;;10.61;100.00
29467;BME280;60968;37.490;-122.288;2023-05-24T13:57:23;98515.84;;;10.54;100.00
29467;BME280;60968;37.490;-122.288;2023-05-24T14:00:24;98517.47;;;10.60;100.00
29467;BME280;60968;37.490;-122.288;2023-05-24T14:03:26;98517.50;;;10.58;100.00
29467;BME280;60968;37.490;-122.288;2023-05-24T14:06:27;98512.31;;;10.57;100.00
29467;BME280;60968;37.490;-122.288;2023-05-24T14:09:28;98513.97;;;10.61;100.00
29467;BME280;60968;37.490;-122.288;2023-05-24T14:12:29;98522.47;;;10.69;100.00
29467;BME280;60968;37.490;-122.288;2023-05-24T14:15:30;98506.22;;;10.58;100.00
29467;BME280;60968;37.490;-122.288;2023-05-24T14:18:31;98526.06;;;10.63;100.00
29467;BME280;60968;37.490;-122.288;2023-05-24T14:21:32;98514.81;;;10.61;100.00
29467;BME280;60968;37.490;-122.288;2023-05-24T14:24:33;98513.44;;;10.46;100.00
29467;BME280;60968;37.490;-122.288;2023-05-24T14:27:35;98509.09;;;10.45;100.00
29467;BME280;60968;37.490;-122.288;2023-05-24T14:30:36;98517.66;;;10.52;100.00
29467;BME280;60968;37.490;-122.288;2023-05-24T14:33:37;98526.84;;;10.67;100.00
29467;BME280;60968;37.490;-122.288;2023-05-24T14:36:38;98528.47;;;10.73;100.00
29467;BME280;60968;37.490;-122.288;2023-05-24T14:39:39;98533.47;;;10.82;100.00
29467;BME280;60968;37.490;-122.288;2023-05-24T14:42:40;98527.03;;;10.98;100.00
29467;BME280;60968;37.490;-122.288;2023-05-24T14:45:41;98532.25;;;10.98;100.00
29467;BME280;60968;37.490;-122.288;2023-05-24T14:48:42;98528.31;;;11.16;100.00
29467;BME280;60968;37.490;-122.288;2023-05-24T14:51:45;98520.22;;;11.27;100.00
29467;BME280;60968;37.490;-122.288;2023-05-24T14:54:46;98534.88;;;11.33;100.00
29467;BME280;60968;37.490;-122.288;2023-05-24T14:57:47;98536.69;;;11.31;100.00
29467;BME280;60968;37.490;-122.288;2023-05-24T15:00:48;98538.06;;;11.44;100.00
29467;BME280;60968;37.490;-122.288;2023-05-24T15:03:49;98539.19;;;11.34;100.00
29467;BME280;60968;37.490;-122.288;2023-05-24T15:06:50;98532.03;;;11.06;100.00
29467;BME280;60968;37.490;-122.288;2023-05-24T15:09:51;98540.63;;;11.11;100.00
29467;BME280;60968;37.490;-122.288;2023-05-24T15:12:51;98543.50;;;11.37;100.00
29467;BME280;60968;37.490;-122.288;2023-05-24T15:15:52;98535.28;;;11.52;100.00
29467;BME280;60968;37.490;-122.288;2023-05-24T15:18:53;98544.69;;;11.58;100.00
29467;BME280;60968;37.490;-122.288;2023-05-24T15:21:54;98543.78;;;11.60;99.26
29467;BME280;60968;37.490;-122.288;2023-05-24T15:24:55;98538.72;;;11.87;98.61
29467;BME280;60968;37.490;-122.288;2023-05-24T15:27:56;98547.16;;;11.98;96.52
29467;BME280;60968;37.490;-122.288;2023-05-24T15:30:57;98553.59;;;12.16;96.03
29467;BME280;60968;37.490;-122.288;2023-05-24T15:33:57;98557.59;;;12.30;94.09
29467;BME280;60968;37.490;-122.288;2023-05-24T15:36:58;98560.00;;;12.36;93.97
29467;BME280;60968;37.490;-122.288;2023-05-24T15:39:59;98559.13;;;12.37;92.04
29467;BME280;60968;37.490;-122.288;2023-05-24T15:43:00;98561.91;;;12.61;90.63